KPVE

Beech River Regional Airport

Lexington-Parsons, Tennessee, USA
METAR KPVE 150035Z AUTO 00000KT 10SM CLR 26/24 A3000 RMK A01
Observed Flight Rules
Aug-15 @ 00:35 UTC (29 minutes ago) Visual Flight Rules
Visibility Clouds
10 miles
  • Clear skies
Temperatures Readings
Current 26°C / 79°F
Dewpoint 24°C / 75°F
Humidity 89%
Altimeter 30" Hg
Pressure 1016 hPa
Elevation 149
METAR KPVE 150035Z AUTO 00000KT 10SM CLR 26/24 A3000 RMK A01
Observed Flight Rules
Aug-15 @ 00:35 UTC
(29 minutes ago)
VFR
Clouds
  • Clear skies
Temperature Dewpoint
26°C / 79°F 24°C / 75°F
Humidity Altimeter Pressure
89% 30" Hg 1016 hPa